»·PEaware :: ACA849 KLAX-KSFO

ACA849 :: KLAX-KSFO

FLIGHT INFORMATION

Flight Status: Arrived
Operator:
Air Canada
More flights by this operator :: More flights under this callsign
Pilot: Thomas N. (7419)
Aircraft: AIRBUS A330-200
(A332)
More flights by this aircraft type
Origin: KLAX Los Angeles Intl
United States
Destination: KSFO San Francisco Intl
United States
More flights between these airports :: More routes between these airports
Route: +FIXIT2 RZS J501 BSR BSR2
File this flight plan on PilotEdge
Remarks:
Altitude:
(Current/Filed)
32,000ft
Speed:
(Current/Filed)
450kts
Departed: 20-Nov-15 05:16 PM
Arrived: 20-Nov-15 06:08 PM
Distance/Time
Traveled:
293nm/0:52
Distance/Time
To Go:
Arrived

Flight Plot

Page will automatically refresh every two minutes.


Map Options




Map Legend


Flown Route
Filed Route
Departure Airport
Arrival Airport
Navaid (VOR, NDB)
Fix

Horizontal Profiles

Position Reports

Time Latitude Longitude Heading Altitude Ground
Speed
20-Nov-15 16:48 33.941588 -118.403844 265 138ft 0kts
20-Nov-15 16:49 33.941588 -118.403844 265 138ft 0kts
20-Nov-15 16:50 33.941588 -118.403844 265 138ft 0kts
20-Nov-15 16:51 33.941588 -118.403844 265 138ft 0kts
20-Nov-15 16:52 33.941588 -118.403844 265 138ft 0kts
20-Nov-15 16:53 33.941588 -118.403844 265 138ft 0kts
20-Nov-15 16:54 33.941588 -118.403844 265 138ft 0kts
20-Nov-15 16:55 33.941588 -118.403844 265 138ft 0kts
20-Nov-15 16:56 33.941588 -118.403844 265 138ft 0kts
20-Nov-15 16:57 33.941588 -118.403844 265 138ft 0kts
20-Nov-15 16:58 33.941588 -118.403844 265 138ft 0kts
20-Nov-15 16:59 33.941588 -118.403844 265 138ft 0kts
20-Nov-15 17:00 33.941588 -118.403844 265 138ft 0kts
20-Nov-15 17:01 33.941591 -118.403803 265 138ft 0kts
20-Nov-15 17:02 33.941592 -118.403648 279 138ft 0kts
20-Nov-15 17:03 33.941774 -118.403374 163 138ft 0kts
20-Nov-15 17:04 33.941774 -118.403374 163 138ft 0kts
20-Nov-15 17:05 33.941244 -118.403205 166 138ft 8kts
20-Nov-15 17:06 33.938585 -118.402531 99 138ft 8kts
20-Nov-15 17:07 33.939228 -118.395730 82 138ft 20kts
20-Nov-15 17:08 33.939734 -118.390939 82 138ft 18kts
20-Nov-15 17:09 33.940237 -118.385959 83 138ft 12kts
20-Nov-15 17:10 33.940741 -118.380994 87 138ft 5kts
20-Nov-15 17:11 33.939799 -118.380968 262 138ft 7kts
20-Nov-15 17:12 33.939743 -118.381376 262 138ft 0kts
20-Nov-15 17:13 33.939743 -118.381376 262 138ft 0kts
20-Nov-15 17:14 33.935974 -118.415738 263 862ft 188kts
20-Nov-15 17:15 33.930080 -118.483166 264 4137ft 254kts
20-Nov-15 17:16 33.922393 -118.573851 264 7875ft 288kts
20-Nov-15 17:16 33.917510 -118.654500 269 10296ft 306kts
20-Nov-15 17:18 33.915850 -118.790633 269 12196ft 386kts
20-Nov-15 17:18 33.928620 -118.896425 300 14814ft 398kts
20-Nov-15 17:19 34.005650 -118.987606 348 17804ft 415kts
20-Nov-15 17:20 34.120899 -119.011840 335 20514ft 431kts
20-Nov-15 17:21 34.195871 -119.120363 301 22785ft 447kts
20-Nov-15 17:22 34.261070 -119.251938 299 25145ft 462kts
20-Nov-15 17:23 34.326877 -119.387902 299 27282ft 477kts
20-Nov-15 17:24 34.394293 -119.529086 299 28997ft 496kts
20-Nov-15 17:25 34.463774 -119.675013 299 31234ft 497kts
20-Nov-15 17:26 34.544950 -119.808336 316 31971ft 496kts
20-Nov-15 17:27 34.645811 -119.919531 317 31984ft 489kts
20-Nov-15 17:28 34.746116 -120.029307 317 31990ft 484kts
20-Nov-15 17:29 34.845314 -120.137895 318 31987ft 480kts
20-Nov-15 17:30 34.944496 -120.246956 319 31981ft 483kts
20-Nov-15 17:31 35.043643 -120.356509 319 31981ft 480kts
20-Nov-15 17:32 35.143560 -120.467306 318 32004ft 489kts
20-Nov-15 17:33 35.244550 -120.579712 318 32022ft 493kts
20-Nov-15 17:34 35.345729 -120.693143 318 32021ft 493kts
20-Nov-15 17:35 35.446794 -120.806569 319 32058ft 500kts
20-Nov-15 17:36 35.550786 -120.924071 319 32090ft 515kts
20-Nov-15 17:37 35.655835 -121.043144 319 31447ft 515kts
20-Nov-15 17:38 35.761553 -121.163015 318 29984ft 522kts
20-Nov-15 17:39 35.867349 -121.283896 317 28149ft 512kts
20-Nov-15 17:40 35.969186 -121.400313 314 26155ft 480kts
20-Nov-15 17:41 36.061546 -121.505614 316 24171ft 440kts
20-Nov-15 17:42 36.150571 -121.607090 318 22462ft 432kts
20-Nov-15 17:43 36.245643 -121.694372 321 20998ft 425kts
20-Nov-15 17:44 36.340019 -121.779459 325 20112ft 420kts
20-Nov-15 17:45 36.433983 -121.861334 325 19045ft 398kts
20-Nov-15 17:47 36.534264 -121.902543 346 17451ft 370kts
20-Nov-15 17:48 36.630608 -121.931056 346 15508ft 341kts
20-Nov-15 17:49 36.718516 -121.956849 347 13593ft 309kts
20-Nov-15 17:50 36.800084 -121.979089 348 11692ft 297kts
20-Nov-15 17:51 36.879542 -121.999858 348 10088ft 290kts
20-Nov-15 17:52 36.958736 -122.020589 348 10092ft 292kts
20-Nov-15 17:53 37.038021 -122.041374 348 10097ft 289kts
20-Nov-15 17:54 37.116227 -122.061935 348 10107ft 286kts
20-Nov-15 17:55 37.193460 -122.082306 348 9190ft 279kts
20-Nov-15 17:56 37.262758 -122.100616 347 7445ft 270kts
20-Nov-15 17:57 37.329627 -122.118013 348 6118ft 264kts
20-Nov-15 17:58 37.401360 -122.101069 14 4741ft 263kts
20-Nov-15 17:59 37.466608 -122.104018 321 3117ft 243kts
20-Nov-15 18:00 37.517695 -122.155600 328 3187ft 218kts
20-Nov-15 18:01 37.548279 -122.208713 291 2786ft 166kts
20-Nov-15 18:02 37.567651 -122.252329 299 1873ft 132kts
20-Nov-15 18:03 37.584675 -122.293581 298 1196ft 137kts
20-Nov-15 18:04 37.601347 -122.333835 296 556ft 125kts
20-Nov-15 18:05 37.615937 -122.368506 298 26ft 68kts
20-Nov-15 18:06 37.618945 -122.378140 266 26ft 0kts
20-Nov-15 18:07 37.618884 -122.379861 256 26ft 7kts
20-Nov-15 18:08 37.618210 -122.380752 215 26ft 0kts

Navigation Log

Ident Type
Flight plan parsing failed, navigation log unavailable